createdAt,value
2023-05-03T00:00:08.433Z,1.65
2023-05-03T00:02:39.085Z,2.30
2023-05-03T00:05:08.157Z,5.55
2023-05-03T00:07:35.179Z,1.95
2023-05-03T00:10:02.173Z,2.50
2023-05-03T00:12:28.960Z,4.72
2023-05-03T00:14:55.787Z,3.00
2023-05-03T00:17:22.454Z,2.30
2023-05-03T00:19:49.238Z,2.90
2023-05-03T00:22:15.929Z,1.80
2023-05-03T00:24:42.646Z,2.08
2023-05-03T00:27:09.235Z,1.35
2023-05-03T00:29:35.853Z,5.38
2023-05-03T00:32:02.514Z,1.42
2023-05-03T00:34:29.352Z,2.38
2023-05-03T00:36:56.061Z,1.75
2023-05-03T00:39:22.659Z,2.35
2023-05-03T00:41:49.731Z,1.75
2023-05-03T00:44:16.378Z,2.00
2023-05-03T00:46:43.235Z,2.28
2023-05-03T00:49:09.779Z,3.63
2023-05-03T00:51:36.834Z,2.20
2023-05-03T00:54:03.620Z,1.85
2023-05-03T00:56:32.980Z,2.55
2023-05-03T00:59:05.899Z,3.97
2023-05-03T01:01:32.940Z,2.13
2023-05-03T01:04:03.296Z,3.67
2023-05-03T01:06:38.129Z,2.05
2023-05-03T01:09:13.981Z,2.38
2023-05-03T01:12:03.272Z,3.17
2023-05-03T01:14:51.429Z,2.28
2023-05-03T01:17:21.305Z,5.22
2023-05-03T01:19:51.646Z,4.13
2023-05-03T01:22:27.647Z,2.55
2023-05-03T01:25:08.349Z,3.35
2023-05-03T01:27:36.197Z,3.33
2023-05-03T01:30:07.437Z,2.97
2023-05-03T01:32:55.826Z,2.97
2023-05-03T01:36:00.082Z,3.90
2023-05-03T01:38:30.830Z,3.03
2023-05-03T01:41:01.606Z,2.88
2023-05-03T01:43:31.372Z,3.50
2023-05-03T01:45:58.551Z,2.33
2023-05-03T01:48:25.630Z,2.08
2023-05-03T01:50:52.161Z,2.78
2023-05-03T01:53:18.821Z,2.67
2023-05-03T01:55:45.403Z,1.90
2023-05-03T01:58:12.537Z,1.95
2023-05-03T02:00:39.168Z,2.50
2023-05-03T02:03:05.818Z,2.13
2023-05-03T02:05:32.420Z,2.88
2023-05-03T02:08:00.455Z,2.65
2023-05-03T02:10:27.070Z,4.18
2023-05-03T02:12:55.239Z,3.10
2023-05-03T02:15:21.882Z,3.88
2023-05-03T02:17:49.565Z,2.10
2023-05-03T02:20:16.897Z,5.43
2023-05-03T02:22:43.415Z,2.63
2023-05-03T02:25:10.022Z,1.77
2023-05-03T02:27:37.408Z,2.15
2023-05-03T02:30:04.781Z,2.25
2023-05-03T02:32:37.712Z,3.92
2023-05-03T02:35:05.294Z,2.83
2023-05-03T02:37:32.072Z,1.63
2023-05-03T02:39:58.981Z,3.08
2023-05-03T02:42:25.593Z,2.33
2023-05-03T02:44:52.300Z,3.38
2023-05-03T02:47:18.823Z,1.65
2023-05-03T02:49:45.493Z,1.77
2023-05-03T02:52:12.172Z,2.58
2023-05-03T02:54:38.883Z,2.38
2023-05-03T02:57:11.443Z,2.20
2023-05-03T02:59:37.950Z,2.15
2023-05-03T03:02:04.764Z,2.10
2023-05-03T03:04:33.143Z,1.75
2023-05-03T03:07:00.212Z,2.22
2023-05-03T03:09:26.724Z,2.22
2023-05-03T03:11:53.921Z,2.40
2023-05-03T03:14:21.485Z,2.78
2023-05-03T03:16:50.529Z,1.60
2023-05-03T03:19:17.300Z,2.45
2023-05-03T03:21:43.976Z,2.28
2023-05-03T03:24:10.598Z,1.73
2023-05-03T03:26:39.146Z,2.22
2023-05-03T03:29:05.705Z,2.03
2023-05-03T03:31:33.718Z,1.63
2023-05-03T03:34:00.636Z,2.90
2023-05-03T03:36:29.140Z,1.85
2023-05-03T03:38:55.804Z,2.17
2023-05-03T03:41:22.981Z,4.60
2023-05-03T03:43:50.386Z,2.28
2023-05-03T03:46:19.595Z,3.95
2023-05-03T03:48:49.802Z,1.98
2023-05-03T03:51:16.448Z,1.40
2023-05-03T03:53:46.693Z,1.92
2023-05-03T03:56:13.308Z,2.05
2023-05-03T03:58:41.019Z,2.42
2023-05-03T04:01:09.004Z,3.65
2023-05-03T04:03:37.102Z,2.85
2023-05-03T04:06:04.212Z,1.02
2023-05-03T04:08:30.824Z,1.73
2023-05-03T04:10:57.399Z,2.28
2023-05-03T04:13:25.356Z,1.77
2023-05-03T04:15:56.626Z,2.17
2023-05-03T04:18:23.972Z,2.33
2023-05-03T04:20:52.308Z,2.70
2023-05-03T04:23:18.876Z,2.03
2023-05-03T04:25:46.577Z,1.58
2023-05-03T04:28:15.078Z,2.20
2023-05-03T04:30:46.887Z,2.03
2023-05-03T04:33:16.002Z,3.35
2023-05-03T04:35:42.980Z,2.83
2023-05-03T04:38:13.800Z,2.08
2023-05-03T04:40:41.052Z,1.73
2023-05-03T04:43:09.565Z,4.28
2023-05-03T04:48:09.864Z,2.63
2023-05-03T04:50:36.563Z,1.85
2023-05-03T04:53:04.405Z,2.53
2023-05-03T04:55:34.581Z,5.28
2023-05-03T04:58:03.337Z,3.47
2023-05-03T05:00:30.785Z,1.52
2023-05-03T05:03:03.596Z,1.85
2023-05-03T05:05:31.137Z,2.17
2023-05-03T05:07:59.692Z,5.00
2023-05-03T05:10:30.945Z,3.13
2023-05-03T05:12:58.237Z,1.98
2023-05-03T05:15:25.967Z,3.13
2023-05-03T05:17:52.940Z,3.28
2023-05-03T05:20:20.408Z,4.25
2023-05-03T05:25:16.104Z,2.63
2023-05-03T05:27:45.510Z,1.83
2023-05-03T05:32:41.501Z,2.40
2023-05-03T05:41:01.663Z,2.97
2023-05-03T05:43:29.693Z,1.40
2023-05-03T05:45:56.567Z,3.70
2023-05-03T05:48:23.805Z,4.82
2023-05-03T05:50:50.710Z,2.15
2023-05-03T05:53:17.779Z,1.63
2023-05-03T05:55:54.600Z,4.50
2023-05-03T05:58:21.302Z,1.75
2023-05-03T06:00:51.794Z,4.13
2023-05-03T06:03:18.595Z,2.72
2023-05-03T06:08:14.911Z,3.13
2023-05-03T06:10:41.600Z,1.35
2023-05-03T06:13:08.229Z,2.42
2023-05-03T06:15:34.958Z,2.33
2023-05-03T06:18:01.874Z,1.65
2023-05-03T06:20:28.523Z,4.32
2023-05-03T06:22:56.128Z,2.00
2023-05-03T06:25:22.730Z,2.00
2023-05-03T06:27:50.664Z,2.10
2023-05-03T06:30:20.458Z,3.67
2023-05-03T06:32:48.757Z,1.90
2023-05-03T06:35:15.764Z,6.03
2023-05-03T06:37:43.643Z,5.28
2023-05-03T06:40:10.481Z,5.90
2023-05-03T06:42:37.326Z,3.50
2023-05-03T06:45:11.104Z,4.93
2023-05-03T06:47:50.181Z,2.25
2023-05-03T06:50:17.674Z,5.13
2023-05-03T06:52:44.408Z,2.13
2023-05-03T06:55:11.092Z,2.60
2023-05-03T06:57:38.627Z,3.05
2023-05-03T07:00:07.298Z,2.67
2023-05-03T07:02:34.583Z,4.72
2023-05-03T07:05:01.351Z,2.88
2023-05-03T07:07:27.872Z,1.83
2023-05-03T07:09:54.583Z,4.93
2023-05-03T07:12:21.134Z,1.77
2023-05-03T07:14:48.046Z,2.78
2023-05-03T07:17:14.633Z,1.33
2023-05-03T07:19:41.254Z,4.38
2023-05-03T07:22:07.833Z,2.03
2023-05-03T07:24:34.593Z,2.05
2023-05-03T07:27:01.696Z,4.97
2023-05-03T07:29:28.524Z,4.70
2023-05-03T07:31:55.228Z,2.08
2023-05-03T07:34:22.015Z,1.95
2023-05-03T07:36:48.671Z,2.08
2023-05-03T07:39:15.346Z,3.05
2023-05-03T07:41:41.998Z,5.82
2023-05-03T07:44:08.669Z,3.97
2023-05-03T07:46:35.551Z,2.60
2023-05-03T07:49:07.031Z,3.95
2023-05-03T07:51:37.837Z,2.75
2023-05-03T07:54:05.361Z,4.35
2023-05-03T07:56:31.967Z,4.82
2023-05-03T07:59:08.372Z,1.77
2023-05-03T08:01:36.547Z,5.43
2023-05-03T08:04:03.481Z,2.80
2023-05-03T08:06:31.757Z,1.95
2023-05-03T08:08:58.788Z,1.88
2023-05-03T08:11:27.385Z,2.53
2023-05-03T08:13:53.933Z,1.42
2023-05-03T08:16:21.319Z,1.85
2023-05-03T08:18:48.142Z,3.50
2023-05-03T08:21:15.357Z,8.57
2023-05-03T08:23:42.451Z,2.53
2023-05-03T08:26:09.975Z,2.13
2023-05-03T08:28:36.516Z,3.13
2023-05-03T08:31:07.656Z,6.90
2023-05-03T08:33:34.913Z,1.55
2023-05-03T08:36:01.712Z,2.70
2023-05-03T08:38:28.801Z,2.42
2023-05-03T08:40:58.641Z,2.72
2023-05-03T08:43:27.790Z,3.78
2023-05-03T08:45:54.504Z,2.20
2023-05-03T08:48:21.248Z,3.83
2023-05-03T08:50:50.871Z,3.25
2023-05-03T08:53:17.502Z,1.83
2023-05-03T08:55:44.784Z,3.50
2023-05-03T08:58:12.940Z,3.20
2023-05-03T09:00:41.681Z,2.28
2023-05-03T09:03:08.650Z,2.72
2023-05-03T09:05:38.856Z,2.33
2023-05-03T09:08:07.121Z,3.60
2023-05-03T09:10:38.259Z,2.42
2023-05-03T09:13:04.920Z,2.60
2023-05-03T09:15:31.911Z,4.32
2023-05-03T09:18:13.225Z,3.92
2023-05-03T09:20:41.758Z,3.20
2023-05-03T09:23:09.597Z,4.28
2023-05-03T09:25:47.496Z,4.13
2023-05-03T09:28:15.585Z,2.22
2023-05-03T09:30:43.344Z,1.30
2023-05-03T09:33:11.478Z,5.20
2023-05-03T09:35:38.941Z,2.67
2023-05-03T09:38:06.244Z,1.50
2023-05-03T09:40:33.183Z,8.02
2023-05-03T09:43:19.236Z,4.55
2023-05-03T09:45:46.437Z,5.80
2023-05-03T09:48:13.518Z,5.10
2023-05-03T09:50:40.220Z,4.30
2023-05-03T09:53:07.423Z,4.15
2023-05-03T09:55:38.216Z,2.83
2023-05-03T09:58:08.704Z,4.07
2023-05-03T10:00:40.370Z,3.03
2023-05-03T10:03:09.750Z,3.05
2023-05-03T10:05:44.209Z,3.15
2023-05-03T10:08:12.806Z,3.08
2023-05-03T10:10:40.592Z,4.88
2023-05-03T10:13:07.432Z,2.08
2023-05-03T10:15:34.570Z,3.60
2023-05-03T10:18:03.604Z,2.97
2023-05-03T10:23:06.221Z,3.95
2023-05-03T10:25:34.705Z,2.78
2023-05-03T10:28:05.923Z,3.55
2023-05-03T10:30:37.218Z,3.58
2023-05-03T10:33:10.156Z,2.13
2023-05-03T10:35:39.436Z,3.72
2023-05-03T10:38:16.261Z,2.30
2023-05-03T10:40:44.507Z,2.53
2023-05-03T10:43:29.937Z,2.78
2023-05-03T10:46:07.112Z,3.53
2023-05-03T10:48:34.564Z,1.52
2023-05-03T10:51:30.529Z,2.03
2023-05-03T10:53:57.195Z,4.18
2023-05-03T10:56:24.064Z,3.67
2023-05-03T10:58:51.199Z,2.95
2023-05-03T11:01:19.175Z,3.38
2023-05-03T11:03:54.880Z,1.90
2023-05-03T11:06:51.571Z,3.47
2023-05-03T11:09:18.372Z,3.28
2023-05-03T11:11:44.971Z,1.77
2023-05-03T11:14:13.571Z,2.55
2023-05-03T11:16:47.976Z,3.15
2023-05-03T11:19:15.654Z,3.05
2023-05-03T11:21:42.957Z,2.60
2023-05-03T11:24:09.973Z,3.33
2023-05-03T11:26:39.965Z,2.47
2023-05-03T11:29:10.414Z,2.35
2023-05-03T11:31:37.205Z,3.20
2023-05-03T11:34:04.036Z,2.88
2023-05-03T11:36:31.115Z,3.75
2023-05-03T11:38:57.817Z,4.03
2023-05-03T11:41:24.761Z,4.95
2023-05-03T11:44:00.704Z,2.53
2023-05-03T11:46:37.298Z,6.00
2023-05-03T11:49:04.109Z,5.05
2023-05-03T11:51:31.378Z,3.25
2023-05-03T11:54:06.917Z,3.03
2023-05-03T11:56:39.996Z,2.85
2023-05-03T11:59:06.575Z,3.80
2023-05-03T12:01:33.375Z,2.25
2023-05-03T12:04:02.450Z,4.88
2023-05-03T12:06:34.222Z,3.70
2023-05-03T12:09:03.601Z,6.18
2023-05-03T12:11:33.511Z,4.38
2023-05-03T12:14:03.431Z,3.42
2023-05-03T12:16:47.273Z,3.22
2023-05-03T12:19:31.779Z,3.25
2023-05-03T12:22:21.318Z,1.83
2023-05-03T12:24:49.172Z,3.83
2023-05-03T12:27:19.113Z,2.97
2023-05-03T12:29:47.531Z,2.55
2023-05-03T12:32:15.039Z,3.45
2023-05-03T12:34:42.559Z,2.55
2023-05-03T12:37:11.767Z,2.72
2023-05-03T12:39:39.976Z,2.63
2023-05-03T12:42:09.283Z,4.50
2023-05-03T12:44:41.802Z,2.70
2023-05-03T12:47:10.064Z,3.75
2023-05-03T12:49:39.149Z,3.08
2023-05-03T12:52:35.410Z,3.92
2023-05-03T12:54:55.582Z,3.00
2023-05-03T12:57:23.969Z,4.22
2023-05-03T12:59:56.804Z,4.38
2023-05-03T13:05:00.303Z,2.30
2023-05-03T13:07:30.498Z,3.53
2023-05-03T13:12:28.564Z,3.78
2023-05-03T13:14:55.772Z,3.83
2023-05-03T13:17:23.031Z,3.17
2023-05-03T13:19:51.180Z,2.45
2023-05-03T13:22:18.135Z,3.08
2023-05-03T13:24:45.990Z,4.47
2023-05-03T13:27:12.913Z,2.78
2023-05-03T13:29:39.650Z,3.97
2023-05-03T13:32:06.982Z,4.85
2023-05-03T13:34:34.189Z,2.65
2023-05-03T13:37:04.605Z,3.95
2023-05-03T13:39:32.219Z,5.80
2023-05-03T13:41:58.862Z,3.38
2023-05-03T13:44:26.004Z,3.85
2023-05-03T13:46:52.824Z,4.28
2023-05-03T13:49:19.670Z,4.75
2023-05-03T13:51:46.253Z,3.47
2023-05-03T13:54:12.905Z,2.97
2023-05-03T13:56:41.327Z,2.97
2023-05-03T13:59:11.221Z,4.13
2023-05-03T14:01:38.224Z,3.17
2023-05-03T14:04:05.537Z,4.05
2023-05-03T14:06:33.542Z,5.13
2023-05-03T14:09:01.640Z,5.00
2023-05-03T14:11:29.627Z,3.22
2023-05-03T14:13:57.982Z,3.33
2023-05-03T14:18:58.595Z,4.32
2023-05-03T14:21:26.309Z,3.63
2023-05-03T14:23:54.594Z,2.47
2023-05-03T14:26:23.929Z,3.88
2023-05-03T14:28:50.864Z,3.25
2023-05-03T14:31:17.541Z,3.97
2023-05-03T14:33:44.257Z,4.10
2023-05-03T14:36:11.153Z,2.90
2023-05-03T14:38:37.678Z,3.75
2023-05-03T14:41:04.512Z,3.08
2023-05-03T14:43:31.476Z,3.47
2023-05-03T14:45:57.994Z,5.07
2023-05-03T14:48:24.616Z,3.60
2023-05-03T14:50:51.874Z,4.00
2023-05-03T14:53:18.454Z,2.95
2023-05-03T14:55:45.601Z,4.90
2023-05-03T14:58:15.844Z,2.90
2023-05-03T15:00:43.287Z,2.53
2023-05-03T15:03:11.915Z,3.53
2023-05-03T15:05:49.134Z,3.53
2023-05-03T15:08:19.098Z,2.97
2023-05-03T15:10:46.480Z,3.10
2023-05-03T15:13:14.160Z,2.30
2023-05-03T15:15:43.341Z,3.70
2023-05-03T15:18:10.117Z,5.03
2023-05-03T15:20:36.764Z,2.85
2023-05-03T15:23:04.751Z,3.20
2023-05-03T15:25:31.977Z,6.47
2023-05-03T15:27:59.944Z,2.88
2023-05-03T15:30:28.799Z,1.75
2023-05-03T15:32:55.459Z,2.67
2023-05-03T15:35:22.033Z,2.80
2023-05-03T15:37:48.710Z,3.28
2023-05-03T15:40:16.650Z,3.15
2023-05-03T15:42:43.225Z,2.55
2023-05-03T15:45:10.460Z,2.97
2023-05-03T15:47:37.027Z,3.45
2023-05-03T15:50:04.094Z,2.38
2023-05-03T15:52:30.891Z,3.00
2023-05-03T15:54:57.534Z,2.63
2023-05-03T15:57:24.481Z,2.47
2023-05-03T15:59:51.129Z,2.80
2023-05-03T16:02:17.754Z,6.15
2023-05-03T16:04:44.407Z,4.47
2023-05-03T16:07:11.259Z,2.58
2023-05-03T16:09:37.829Z,3.05
2023-05-03T16:12:04.570Z,2.78
2023-05-03T16:14:31.220Z,3.33
2023-05-03T16:17:00.323Z,5.55
2023-05-03T16:19:26.924Z,2.80
2023-05-03T16:21:53.957Z,3.55
2023-05-03T16:24:21.386Z,1.98
2023-05-03T16:26:47.964Z,0.98
2023-05-03T16:29:14.826Z,4.03
2023-05-03T16:31:41.472Z,2.90
2023-05-03T16:34:08.044Z,3.15
2023-05-03T16:36:42.293Z,2.50
2023-05-03T16:39:10.506Z,4.03
2023-05-03T16:41:38.606Z,3.00
2023-05-03T16:44:06.206Z,1.95
2023-05-03T16:46:37.049Z,3.15
2023-05-03T16:49:04.446Z,4.40
2023-05-03T16:51:31.646Z,3.42
2023-05-03T16:53:58.584Z,3.08
2023-05-03T16:56:26.242Z,3.22
2023-05-03T16:58:53.300Z,2.67
2023-05-03T17:01:19.965Z,5.10
2023-05-03T17:03:46.678Z,1.70
2023-05-03T17:06:13.453Z,2.85
2023-05-03T17:08:40.145Z,2.25
2023-05-03T17:11:08.664Z,2.75
2023-05-03T17:13:36.132Z,2.38
2023-05-03T17:16:11.143Z,4.10
2023-05-03T17:18:39.244Z,2.40
2023-05-03T17:21:07.597Z,2.05
2023-05-03T17:23:38.665Z,3.65
2023-05-03T17:26:08.499Z,2.85
2023-05-03T17:28:35.820Z,3.90
2023-05-03T17:31:03.221Z,3.60
2023-05-03T17:33:30.010Z,2.90
2023-05-03T17:35:56.761Z,3.97
2023-05-03T17:38:23.286Z,4.70
2023-05-03T17:40:49.798Z,2.15
2023-05-03T17:43:17.497Z,2.28
2023-05-03T17:45:45.632Z,2.00
2023-05-03T17:48:12.535Z,2.83
2023-05-03T17:50:41.350Z,1.83
2023-05-03T17:53:09.292Z,2.58
2023-05-03T17:55:37.915Z,1.85
2023-05-03T17:58:05.997Z,3.20
2023-05-03T18:00:33.205Z,3.28
2023-05-03T18:02:59.782Z,3.42
2023-05-03T18:05:27.261Z,2.60
2023-05-03T18:07:54.169Z,2.42
2023-05-03T18:10:20.841Z,2.50
2023-05-03T18:12:47.426Z,3.05
2023-05-03T18:15:15.486Z,4.82
2023-05-03T18:17:42.807Z,3.45
2023-05-03T18:20:10.095Z,3.95
2023-05-03T18:22:37.396Z,3.45
2023-05-03T18:25:07.109Z,3.05
2023-05-03T18:27:36.576Z,7.60
2023-05-03T18:30:06.293Z,2.67
2023-05-03T18:32:33.300Z,5.03
2023-05-03T18:35:00.701Z,5.75
2023-05-03T18:37:27.532Z,3.35
2023-05-03T18:39:54.084Z,2.88
2023-05-03T18:42:21.312Z,2.33
2023-05-03T18:44:48.318Z,2.92
2023-05-03T18:47:16.204Z,2.42
2023-05-03T18:49:46.919Z,3.15
2023-05-03T18:52:14.932Z,1.92
2023-05-03T18:54:41.698Z,1.92
2023-05-03T18:57:08.262Z,2.53
2023-05-03T18:59:40.358Z,2.97
2023-05-03T19:02:14.334Z,2.88
2023-05-03T19:04:42.666Z,4.85
2023-05-03T19:07:10.435Z,2.38
2023-05-03T19:09:40.333Z,2.80
2023-05-03T19:12:10.083Z,1.83
2023-05-03T19:14:41.169Z,2.90
2023-05-03T19:17:08.363Z,3.85
2023-05-03T19:19:35.183Z,2.20
2023-05-03T19:22:01.756Z,2.88
2023-05-03T19:24:28.381Z,4.00
2023-05-03T19:26:55.006Z,2.92
2023-05-03T19:29:21.808Z,2.53
2023-05-03T19:31:48.636Z,3.28
2023-05-03T19:34:15.274Z,3.30
2023-05-03T19:36:41.871Z,5.07
2023-05-03T19:39:11.280Z,7.50
2023-05-03T19:41:38.712Z,8.80
2023-05-03T19:44:06.012Z,5.47
2023-05-03T19:46:33.751Z,7.22
2023-05-03T19:49:00.678Z,8.35
2023-05-03T19:51:27.863Z,8.50
2023-05-03T19:53:54.425Z,5.60
2023-05-03T19:56:22.047Z,5.03
2023-05-03T19:58:48.758Z,6.10
2023-05-03T20:01:15.510Z,6.97
2023-05-03T20:03:42.612Z,10.15
2023-05-03T20:06:09.431Z,10.57
2023-05-03T20:08:36.098Z,10.88
2023-05-03T20:11:02.639Z,13.23
2023-05-03T20:13:30.102Z,15.30
2023-05-03T20:15:56.672Z,13.05
2023-05-03T20:18:23.249Z,7.53
2023-05-03T20:20:49.897Z,10.63
2023-05-03T20:23:17.145Z,13.10
2023-05-03T20:25:43.736Z,11.18
2023-05-03T20:28:10.450Z,7.75
2023-05-03T20:30:37.244Z,10.32
2023-05-03T20:33:04.389Z,8.98
2023-05-03T20:35:31.326Z,8.23
2023-05-03T20:37:58.184Z,9.43
2023-05-03T20:40:24.883Z,7.22
2023-05-03T20:42:51.797Z,8.55
2023-05-03T20:45:18.555Z,8.93
2023-05-03T20:47:45.070Z,5.10
2023-05-03T20:50:11.854Z,5.60
2023-05-03T20:52:38.520Z,7.07
2023-05-03T20:55:05.525Z,5.60
2023-05-03T20:57:32.093Z,4.75
2023-05-03T20:59:59.693Z,5.97
2023-05-03T21:02:26.329Z,4.82
2023-05-03T21:04:53.181Z,3.90
2023-05-03T21:07:19.767Z,4.95
2023-05-03T21:09:46.346Z,4.50
2023-05-03T21:12:12.835Z,6.32
2023-05-03T21:14:39.412Z,6.38
2023-05-03T21:17:08.501Z,4.97
2023-05-03T21:19:34.998Z,5.53
2023-05-03T21:22:01.643Z,4.13
2023-05-03T21:24:29.091Z,4.50
2023-05-03T21:26:55.588Z,4.95
2023-05-03T21:29:22.116Z,3.47
2023-05-03T21:31:48.758Z,4.68
2023-05-03T21:34:15.363Z,3.83
2023-05-03T21:36:42.556Z,4.05
2023-05-03T21:39:09.333Z,3.70
2023-05-03T21:41:36.585Z,3.22
2023-05-03T21:44:03.120Z,6.15
2023-05-03T21:46:29.734Z,4.68
2023-05-03T21:48:56.294Z,7.10
2023-05-03T21:51:23.473Z,5.30
2023-05-03T21:53:49.972Z,5.05
2023-05-03T21:56:16.821Z,4.15
2023-05-03T21:58:44.315Z,5.93
2023-05-03T22:01:11.647Z,5.78
2023-05-03T22:03:39.808Z,2.72
2023-05-03T22:06:08.376Z,4.07
2023-05-03T22:08:35.226Z,5.18
2023-05-03T22:11:05.100Z,4.65
2023-05-03T22:13:31.965Z,2.90
2023-05-03T22:16:07.394Z,3.58
2023-05-03T22:18:34.994Z,3.00
2023-05-03T22:21:02.899Z,7.65
2023-05-03T22:23:29.804Z,5.50
2023-05-03T22:25:57.001Z,3.83
2023-05-03T22:28:23.597Z,2.55
2023-05-03T22:30:50.134Z,2.92
2023-05-03T22:33:16.727Z,3.75
2023-05-03T22:35:43.253Z,4.38
2023-05-03T22:38:09.748Z,4.18
2023-05-03T22:40:36.569Z,4.18
2023-05-03T22:43:03.130Z,3.13
2023-05-03T22:45:29.658Z,2.53
2023-05-03T22:47:56.229Z,3.38
2023-05-03T22:50:22.792Z,2.78
2023-05-03T22:52:49.481Z,5.75
2023-05-03T22:55:16.105Z,4.07
2023-05-03T22:57:42.593Z,3.05
2023-05-03T23:00:10.289Z,3.30
2023-05-03T23:02:36.886Z,2.22
2023-05-03T23:05:03.488Z,3.60
2023-05-03T23:07:30.213Z,2.88
2023-05-03T23:10:02.414Z,5.88
2023-05-03T23:12:29.860Z,3.55
2023-05-03T23:14:56.858Z,2.58
2023-05-03T23:17:23.495Z,3.30
2023-05-03T23:19:50.158Z,2.75
2023-05-03T23:22:16.728Z,5.47
2023-05-03T23:24:43.275Z,2.85
2023-05-03T23:27:12.352Z,2.67
2023-05-03T23:29:39.310Z,2.97
2023-05-03T23:32:06.374Z,4.03
2023-05-03T23:34:33.481Z,2.75
2023-05-03T23:36:59.961Z,1.85
2023-05-03T23:39:26.586Z,4.60
2023-05-03T23:41:53.076Z,2.45
2023-05-03T23:44:19.618Z,3.25
2023-05-03T23:46:46.109Z,1.75
2023-05-03T23:49:12.637Z,3.00
2023-05-03T23:51:39.240Z,3.15
2023-05-03T23:54:06.019Z,5.22
2023-05-03T23:56:32.510Z,3.50
2023-05-03T23:58:59.916Z,2.78
